sensor_id;sensor_type;location;lat;lon;timestamp;P1;durP1;ratioP1;P2;durP2;ratioP2
47289;SDS011;33197;52.524;13.444;2022-09-09T00:04:32;7.25;;;4.95;;
47289;SDS011;33197;52.524;13.444;2022-09-09T00:07:02;6.40;;;5.20;;
47289;SDS011;33197;52.524;13.444;2022-09-09T00:09:47;6.88;;;5.63;;
47289;SDS011;33197;52.524;13.444;2022-09-09T00:15:07;10.05;;;6.03;;
47289;SDS011;33197;52.524;13.444;2022-09-09T00:18:01;8.25;;;6.28;;
47289;SDS011;33197;52.524;13.444;2022-09-09T00:20:38;6.43;;;5.57;;
47289;SDS011;33197;52.524;13.444;2022-09-09T00:23:19;8.83;;;6.83;;
47289;SDS011;33197;52.524;13.444;2022-09-09T00:25:59;6.20;;;5.60;;
47289;SDS011;33197;52.524;13.444;2022-09-09T00:31:39;7.60;;;5.13;;
47289;SDS011;33197;52.524;13.444;2022-09-09T00:34:11;6.47;;;5.72;;
47289;SDS011;33197;52.524;13.444;2022-09-09T00:36:43;6.70;;;5.15;;
47289;SDS011;33197;52.524;13.444;2022-09-09T00:39:31;5.53;;;5.03;;
47289;SDS011;33197;52.524;13.444;2022-09-09T00:42:23;9.60;;;5.40;;
47289;SDS011;33197;52.524;13.444;2022-09-09T00:47:49;6.88;;;4.63;;
47289;SDS011;33197;52.524;13.444;2022-09-09T00:50:29;6.13;;;5.28;;
47289;SDS011;33197;52.524;13.444;2022-09-09T00:58:15;7.88;;;4.85;;
47289;SDS011;33197;52.524;13.444;2022-09-09T01:08:58;8.27;;;4.97;;
47289;SDS011;33197;52.524;13.444;2022-09-09T01:11:43;8.55;;;6.03;;
47289;SDS011;33197;52.524;13.444;2022-09-09T01:17:08;5.90;;;5.15;;
47289;SDS011;33197;52.524;13.444;2022-09-09T01:20:14;6.13;;;4.45;;
47289;SDS011;33197;52.524;13.444;2022-09-09T01:22:47;5.95;;;5.30;;
47289;SDS011;33197;52.524;13.444;2022-09-09T01:25:28;6.72;;;6.00;;
47289;SDS011;33197;52.524;13.444;2022-09-09T01:28:12;5.88;;;5.35;;
47289;SDS011;33197;52.524;13.444;2022-09-09T01:30:43;5.25;;;4.72;;
47289;SDS011;33197;52.524;13.444;2022-09-09T01:33:14;9.40;;;6.38;;
47289;SDS011;33197;52.524;13.444;2022-09-09T01:38:12;6.95;;;5.35;;
47289;SDS011;33197;52.524;13.444;2022-09-09T01:40:40;7.88;;;5.20;;
47289;SDS011;33197;52.524;13.444;2022-09-09T01:43:07;6.22;;;5.70;;
47289;SDS011;33197;52.524;13.444;2022-09-09T01:45:35;8.00;;;5.13;;
47289;SDS011;33197;52.524;13.444;2022-09-09T01:48:02;7.53;;;5.30;;
47289;SDS011;33197;52.524;13.444;2022-09-09T01:50:30;8.35;;;4.80;;
47289;SDS011;33197;52.524;13.444;2022-09-09T01:52:57;6.00;;;5.18;;
47289;SDS011;33197;52.524;13.444;2022-09-09T01:58:03;7.72;;;5.07;;
47289;SDS011;33197;52.524;13.444;2022-09-09T02:00:33;6.80;;;4.40;;
47289;SDS011;33197;52.524;13.444;2022-09-09T02:03:05;7.45;;;5.32;;
47289;SDS011;33197;52.524;13.444;2022-09-09T02:05:39;7.57;;;5.32;;
47289;SDS011;33197;52.524;13.444;2022-09-09T02:08:14;5.75;;;4.75;;
47289;SDS011;33197;52.524;13.444;2022-09-09T02:10:44;6.80;;;5.15;;
47289;SDS011;33197;52.524;13.444;2022-09-09T02:13:22;8.07;;;5.13;;
47289;SDS011;33197;52.524;13.444;2022-09-09T02:15:56;6.22;;;4.88;;
47289;SDS011;33197;52.524;13.444;2022-09-09T02:20:53;5.07;;;4.45;;
47289;SDS011;33197;52.524;13.444;2022-09-09T02:23:20;7.85;;;4.80;;
47289;SDS011;33197;52.524;13.444;2022-09-09T02:25:48;6.35;;;5.43;;
47289;SDS011;33197;52.524;13.444;2022-09-09T02:28:18;10.73;;;5.82;;
47289;SDS011;33197;52.524;13.444;2022-09-09T02:30:47;5.40;;;4.90;;
47289;SDS011;33197;52.524;13.444;2022-09-09T02:33:26;6.68;;;5.97;;
47289;SDS011;33197;52.524;13.444;2022-09-09T02:35:55;6.60;;;5.40;;
47289;SDS011;33197;52.524;13.444;2022-09-09T02:38:28;5.82;;;5.22;;
47289;SDS011;33197;52.524;13.444;2022-09-09T02:40:57;7.40;;;5.20;;
47289;SDS011;33197;52.524;13.444;2022-09-09T02:43:25;5.10;;;4.60;;
47289;SDS011;33197;52.524;13.444;2022-09-09T02:49:01;5.87;;;4.90;;
47289;SDS011;33197;52.524;13.444;2022-09-09T02:54:30;8.73;;;5.35;;
47289;SDS011;33197;52.524;13.444;2022-09-09T02:57:06;5.80;;;5.13;;
47289;SDS011;33197;52.524;13.444;2022-09-09T02:59:35;11.27;;;5.63;;
47289;SDS011;33197;52.524;13.444;2022-09-09T03:02:03;5.15;;;4.65;;
47289;SDS011;33197;52.524;13.444;2022-09-09T03:04:30;11.40;;;6.03;;
47289;SDS011;33197;52.524;13.444;2022-09-09T03:06:58;6.03;;;4.93;;
47289;SDS011;33197;52.524;13.444;2022-09-09T03:09:25;6.10;;;5.28;;
47289;SDS011;33197;52.524;13.444;2022-09-09T03:11:54;6.18;;;5.25;;
47289;SDS011;33197;52.524;13.444;2022-09-09T03:14:22;5.30;;;4.68;;
47289;SDS011;33197;52.524;13.444;2022-09-09T03:16:52;6.28;;;5.03;;
47289;SDS011;33197;52.524;13.444;2022-09-09T03:19:20;5.68;;;5.18;;
47289;SDS011;33197;52.524;13.444;2022-09-09T03:21:47;4.85;;;4.38;;
47289;SDS011;33197;52.524;13.444;2022-09-09T03:24:14;7.63;;;5.25;;
47289;SDS011;33197;52.524;13.444;2022-09-09T03:26:42;5.30;;;4.50;;
47289;SDS011;33197;52.524;13.444;2022-09-09T03:29:12;5.82;;;4.47;;
47289;SDS011;33197;52.524;13.444;2022-09-09T03:31:40;6.72;;;5.07;;
47289;SDS011;33197;52.524;13.444;2022-09-09T03:34:07;5.53;;;5.03;;
47289;SDS011;33197;52.524;13.444;2022-09-09T03:36:34;9.35;;;5.30;;
47289;SDS011;33197;52.524;13.444;2022-09-09T03:39:02;8.18;;;5.65;;
47289;SDS011;33197;52.524;13.444;2022-09-09T03:41:30;5.45;;;4.72;;
47289;SDS011;33197;52.524;13.444;2022-09-09T03:43:57;5.72;;;5.13;;
47289;SDS011;33197;52.524;13.444;2022-09-09T03:46:25;5.38;;;4.65;;
47289;SDS011;33197;52.524;13.444;2022-09-09T03:48:52;6.78;;;4.38;;
47289;SDS011;33197;52.524;13.444;2022-09-09T03:51:19;5.90;;;4.97;;
47289;SDS011;33197;52.524;13.444;2022-09-09T03:53:46;5.75;;;4.65;;
47289;SDS011;33197;52.524;13.444;2022-09-09T03:56:14;6.82;;;5.88;;
47289;SDS011;33197;52.524;13.444;2022-09-09T03:58:42;8.77;;;5.22;;
47289;SDS011;33197;52.524;13.444;2022-09-09T04:01:10;5.65;;;4.85;;
47289;SDS011;33197;52.524;13.444;2022-09-09T04:03:41;5.00;;;4.32;;
47289;SDS011;33197;52.524;13.444;2022-09-09T04:06:09;7.40;;;4.38;;
47289;SDS011;33197;52.524;13.444;2022-09-09T04:08:38;4.55;;;4.05;;
47289;SDS011;33197;52.524;13.444;2022-09-09T04:11:06;7.00;;;4.85;;
47289;SDS011;33197;52.524;13.444;2022-09-09T04:13:34;4.28;;;3.75;;
47289;SDS011;33197;52.524;13.444;2022-09-09T04:16:02;4.38;;;3.97;;
47289;SDS011;33197;52.524;13.444;2022-09-09T04:18:30;5.18;;;4.13;;
47289;SDS011;33197;52.524;13.444;2022-09-09T04:20:58;5.57;;;4.15;;
47289;SDS011;33197;52.524;13.444;2022-09-09T04:23:26;4.30;;;3.90;;
47289;SDS011;33197;52.524;13.444;2022-09-09T04:25:56;5.35;;;4.18;;
47289;SDS011;33197;52.524;13.444;2022-09-09T04:28:25;6.75;;;4.13;;
47289;SDS011;33197;52.524;13.444;2022-09-09T04:30:53;7.30;;;4.25;;
47289;SDS011;33197;52.524;13.444;2022-09-09T04:33:20;6.07;;;4.35;;
47289;SDS011;33197;52.524;13.444;2022-09-09T04:35:48;6.57;;;4.47;;
47289;SDS011;33197;52.524;13.444;2022-09-09T04:38:16;9.65;;;4.50;;
47289;SDS011;33197;52.524;13.444;2022-09-09T04:40:46;7.70;;;4.07;;
47289;SDS011;33197;52.524;13.444;2022-09-09T04:43:13;4.68;;;4.18;;
47289;SDS011;33197;52.524;13.444;2022-09-09T04:45:43;6.85;;;4.07;;
47289;SDS011;33197;52.524;13.444;2022-09-09T04:48:10;9.73;;;4.32;;
47289;SDS011;33197;52.524;13.444;2022-09-09T04:50:37;7.03;;;4.25;;
47289;SDS011;33197;52.524;13.444;2022-09-09T04:53:04;4.47;;;3.72;;
47289;SDS011;33197;52.524;13.444;2022-09-09T04:55:32;6.13;;;3.80;;
47289;SDS011;33197;52.524;13.444;2022-09-09T04:58:03;4.85;;;4.22;;
47289;SDS011;33197;52.524;13.444;2022-09-09T05:00:34;6.15;;;3.80;;
47289;SDS011;33197;52.524;13.444;2022-09-09T05:03:05;7.35;;;3.88;;
47289;SDS011;33197;52.524;13.444;2022-09-09T05:05:33;6.80;;;3.92;;
47289;SDS011;33197;52.524;13.444;2022-09-09T05:08:03;6.55;;;3.95;;
47289;SDS011;33197;52.524;13.444;2022-09-09T05:10:32;4.85;;;3.75;;
47289;SDS011;33197;52.524;13.444;2022-09-09T05:12:59;6.18;;;4.00;;
47289;SDS011;33197;52.524;13.444;2022-09-09T05:15:26;6.28;;;3.80;;
47289;SDS011;33197;52.524;13.444;2022-09-09T05:18:00;4.85;;;3.33;;
47289;SDS011;33197;52.524;13.444;2022-09-09T05:20:27;5.68;;;3.63;;
47289;SDS011;33197;52.524;13.444;2022-09-09T05:22:55;5.55;;;3.78;;
47289;SDS011;33197;52.524;13.444;2022-09-09T05:25:23;5.28;;;3.65;;
47289;SDS011;33197;52.524;13.444;2022-09-09T05:27:53;5.32;;;3.35;;
47289;SDS011;33197;52.524;13.444;2022-09-09T05:30:21;5.00;;;3.63;;
47289;SDS011;33197;52.524;13.444;2022-09-09T05:32:49;8.27;;;4.30;;
47289;SDS011;33197;52.524;13.444;2022-09-09T05:35:16;4.40;;;3.78;;
47289;SDS011;33197;52.524;13.444;2022-09-09T05:37:45;6.03;;;3.83;;
47289;SDS011;33197;52.524;13.444;2022-09-09T05:40:13;6.68;;;3.95;;
47289;SDS011;33197;52.524;13.444;2022-09-09T05:42:40;4.88;;;3.72;;
47289;SDS011;33197;52.524;13.444;2022-09-09T05:45:08;6.93;;;3.47;;
47289;SDS011;33197;52.524;13.444;2022-09-09T05:47:36;5.95;;;3.50;;
47289;SDS011;33197;52.524;13.444;2022-09-09T05:50:04;7.47;;;3.40;;
47289;SDS011;33197;52.524;13.444;2022-09-09T05:52:31;7.05;;;3.03;;
47289;SDS011;33197;52.524;13.444;2022-09-09T05:54:59;9.98;;;4.13;;
47289;SDS011;33197;52.524;13.444;2022-09-09T05:57:26;6.60;;;3.92;;
47289;SDS011;33197;52.524;13.444;2022-09-09T05:59:53;7.25;;;3.38;;
47289;SDS011;33197;52.524;13.444;2022-09-09T06:02:20;7.35;;;3.42;;
47289;SDS011;33197;52.524;13.444;2022-09-09T06:04:47;7.90;;;3.80;;
47289;SDS011;33197;52.524;13.444;2022-09-09T06:07:14;4.55;;;3.15;;
47289;SDS011;33197;52.524;13.444;2022-09-09T06:09:42;7.53;;;3.13;;
47289;SDS011;33197;52.524;13.444;2022-09-09T06:12:09;11.93;;;4.00;;
47289;SDS011;33197;52.524;13.444;2022-09-09T06:14:36;7.60;;;4.00;;
47289;SDS011;33197;52.524;13.444;2022-09-09T06:17:03;6.22;;;3.20;;
47289;SDS011;33197;52.524;13.444;2022-09-09T06:19:30;10.23;;;3.83;;
47289;SDS011;33197;52.524;13.444;2022-09-09T06:21:58;7.88;;;3.60;;
47289;SDS011;33197;52.524;13.444;2022-09-09T06:24:25;7.43;;;3.72;;
47289;SDS011;33197;52.524;13.444;2022-09-09T06:26:52;13.75;;;3.78;;
47289;SDS011;33197;52.524;13.444;2022-09-09T06:29:20;6.93;;;3.25;;
47289;SDS011;33197;52.524;13.444;2022-09-09T06:31:47;6.63;;;3.15;;
47289;SDS011;33197;52.524;13.444;2022-09-09T06:34:15;8.68;;;2.95;;
47289;SDS011;33197;52.524;13.444;2022-09-09T06:36:42;6.55;;;3.20;;
47289;SDS011;33197;52.524;13.444;2022-09-09T06:39:09;4.47;;;2.60;;
47289;SDS011;33197;52.524;13.444;2022-09-09T06:41:41;5.68;;;3.03;;
47289;SDS011;33197;52.524;13.444;2022-09-09T06:44:09;3.88;;;2.60;;
47289;SDS011;33197;52.524;13.444;2022-09-09T06:46:38;7.72;;;2.90;;
47289;SDS011;33197;52.524;13.444;2022-09-09T06:49:07;4.28;;;2.40;;
47289;SDS011;33197;52.524;13.444;2022-09-09T06:51:36;5.93;;;2.75;;
47289;SDS011;33197;52.524;13.444;2022-09-09T06:54:09;7.32;;;2.72;;
47289;SDS011;33197;52.524;13.444;2022-09-09T06:56:40;5.00;;;2.40;;
47289;SDS011;33197;52.524;13.444;2022-09-09T06:59:09;6.60;;;3.85;;
47289;SDS011;33197;52.524;13.444;2022-09-09T07:01:41;7.32;;;2.30;;
47289;SDS011;33197;52.524;13.444;2022-09-09T07:04:10;6.80;;;2.60;;
47289;SDS011;33197;52.524;13.444;2022-09-09T07:06:38;11.55;;;3.22;;
47289;SDS011;33197;52.524;13.444;2022-09-09T07:09:08;7.50;;;2.58;;
47289;SDS011;33197;52.524;13.444;2022-09-09T07:11:47;4.53;;;2.08;;
47289;SDS011;33197;52.524;13.444;2022-09-09T07:14:15;4.38;;;2.25;;
47289;SDS011;33197;52.524;13.444;2022-09-09T07:16:44;6.13;;;2.15;;
47289;SDS011;33197;52.524;13.444;2022-09-09T07:19:11;5.95;;;2.92;;
47289;SDS011;33197;52.524;13.444;2022-09-09T07:21:39;4.35;;;2.38;;
47289;SDS011;33197;52.524;13.444;2022-09-09T07:24:07;6.72;;;2.30;;
47289;SDS011;33197;52.524;13.444;2022-09-09T07:26:37;7.47;;;2.53;;
47289;SDS011;33197;52.524;13.444;2022-09-09T07:29:05;8.43;;;2.67;;
47289;SDS011;33197;52.524;13.444;2022-09-09T07:31:33;7.10;;;2.35;;
47289;SDS011;33197;52.524;13.444;2022-09-09T07:34:03;4.60;;;2.30;;
47289;SDS011;33197;52.524;13.444;2022-09-09T07:36:35;3.20;;;2.35;;
47289;SDS011;33197;52.524;13.444;2022-09-09T07:39:05;4.03;;;2.10;;
47289;SDS011;33197;52.524;13.444;2022-09-09T07:41:35;3.40;;;2.00;;
47289;SDS011;33197;52.524;13.444;2022-09-09T07:44:05;3.65;;;2.00;;
47289;SDS011;33197;52.524;13.444;2022-09-09T07:46:33;4.03;;;1.90;;
47289;SDS011;33197;52.524;13.444;2022-09-09T07:49:01;5.97;;;2.20;;
47289;SDS011;33197;52.524;13.444;2022-09-09T07:51:34;5.15;;;2.17;;
47289;SDS011;33197;52.524;13.444;2022-09-09T07:54:03;7.75;;;2.38;;
47289;SDS011;33197;52.524;13.444;2022-09-09T07:56:32;7.38;;;2.17;;
47289;SDS011;33197;52.524;13.444;2022-09-09T07:58:59;4.60;;;2.28;;
47289;SDS011;33197;52.524;13.444;2022-09-09T08:01:28;4.40;;;1.95;;
47289;SDS011;33197;52.524;13.444;2022-09-09T08:04:13;5.85;;;2.35;;
47289;SDS011;33197;52.524;13.444;2022-09-09T08:06:43;3.85;;;2.05;;
47289;SDS011;33197;52.524;13.444;2022-09-09T08:09:11;4.70;;;1.83;;
47289;SDS011;33197;52.524;13.444;2022-09-09T08:11:39;4.40;;;1.70;;
47289;SDS011;33197;52.524;13.444;2022-09-09T08:14:07;3.33;;;1.75;;
47289;SDS011;33197;52.524;13.444;2022-09-09T08:16:36;3.72;;;1.70;;
47289;SDS011;33197;52.524;13.444;2022-09-09T08:19:05;7.45;;;2.30;;
47289;SDS011;33197;52.524;13.444;2022-09-09T08:21:35;7.20;;;2.08;;
47289;SDS011;33197;52.524;13.444;2022-09-09T08:24:03;5.10;;;1.95;;
47289;SDS011;33197;52.524;13.444;2022-09-09T08:26:38;5.18;;;1.70;;
47289;SDS011;33197;52.524;13.444;2022-09-09T08:29:13;4.72;;;1.60;;
47289;SDS011;33197;52.524;13.444;2022-09-09T08:31:44;9.05;;;1.88;;
47289;SDS011;33197;52.524;13.444;2022-09-09T08:34:11;10.82;;;2.00;;
47289;SDS011;33197;52.524;13.444;2022-09-09T08:36:40;7.40;;;1.77;;
47289;SDS011;33197;52.524;13.444;2022-09-09T08:39:10;4.90;;;1.60;;
47289;SDS011;33197;52.524;13.444;2022-09-09T08:41:40;5.18;;;1.60;;
47289;SDS011;33197;52.524;13.444;2022-09-09T08:44:21;5.13;;;1.48;;
47289;SDS011;33197;52.524;13.444;2022-09-09T08:52:49;5.68;;;2.33;;
47289;SDS011;33197;52.524;13.444;2022-09-09T08:58:12;7.80;;;2.10;;
47289;SDS011;33197;52.524;13.444;2022-09-09T09:09:01;4.53;;;2.05;;
47289;SDS011;33197;52.524;13.444;2022-09-09T09:11:39;3.30;;;1.50;;
47289;SDS011;33197;52.524;13.444;2022-09-09T09:14:19;5.32;;;1.75;;
47289;SDS011;33197;52.524;13.444;2022-09-09T09:19:42;5.70;;;1.90;;
47289;SDS011;33197;52.524;13.444;2022-09-09T09:22:19;7.10;;;2.30;;
47289;SDS011;33197;52.524;13.444;2022-09-09T09:27:52;10.45;;;1.90;;
47289;SDS011;33197;52.524;13.444;2022-09-09T09:30:37;5.97;;;1.70;;
47289;SDS011;33197;52.524;13.444;2022-09-09T09:36:16;4.28;;;1.48;;
47289;SDS011;33197;52.524;13.444;2022-09-09T09:38:54;4.00;;;1.30;;
47289;SDS011;33197;52.524;13.444;2022-09-09T09:41:42;6.60;;;2.08;;
47289;SDS011;33197;52.524;13.444;2022-09-09T09:44:29;3.78;;;1.63;;
47289;SDS011;33197;52.524;13.444;2022-09-09T09:47:07;3.58;;;1.60;;
47289;SDS011;33197;52.524;13.444;2022-09-09T09:49:35;7.00;;;2.17;;
47289;SDS011;33197;52.524;13.444;2022-09-09T09:52:02;7.13;;;1.58;;
47289;SDS011;33197;52.524;13.444;2022-09-09T09:54:37;4.38;;;1.50;;
47289;SDS011;33197;52.524;13.444;2022-09-09T09:57:11;5.25;;;1.60;;
47289;SDS011;33197;52.524;13.444;2022-09-09T09:59:39;2.58;;;1.52;;
47289;SDS011;33197;52.524;13.444;2022-09-09T10:04:44;7.15;;;1.65;;
47289;SDS011;33197;52.524;13.444;2022-09-09T10:07:19;6.72;;;1.70;;
47289;SDS011;33197;52.524;13.444;2022-09-09T10:09:53;4.93;;;1.60;;
47289;SDS011;33197;52.524;13.444;2022-09-09T10:15:09;10.02;;;2.15;;
47289;SDS011;33197;52.524;13.444;2022-09-09T10:20:40;4.68;;;1.55;;
47289;SDS011;33197;52.524;13.444;2022-09-09T10:23:56;2.80;;;1.55;;
47289;SDS011;33197;52.524;13.444;2022-09-09T10:34:46;5.85;;;1.35;;
47289;SDS011;33197;52.524;13.444;2022-09-09T10:40:15;7.38;;;1.58;;
47289;SDS011;33197;52.524;13.444;2022-09-09T10:42:54;5.68;;;1.60;;
47289;SDS011;33197;52.524;13.444;2022-09-09T10:48:19;7.28;;;1.50;;
47289;SDS011;33197;52.524;13.444;2022-09-09T10:53:53;4.35;;;1.42;;
47289;SDS011;33197;52.524;13.444;2022-09-09T10:56:28;4.05;;;1.60;;
47289;SDS011;33197;52.524;13.444;2022-09-09T10:58:57;5.90;;;1.77;;
47289;SDS011;33197;52.524;13.444;2022-09-09T11:01:36;4.60;;;1.55;;
47289;SDS011;33197;52.524;13.444;2022-09-09T11:04:11;7.85;;;1.48;;
47289;SDS011;33197;52.524;13.444;2022-09-09T11:06:44;4.90;;;1.50;;
47289;SDS011;33197;52.524;13.444;2022-09-09T11:09:20;6.72;;;1.67;;
47289;SDS011;33197;52.524;13.444;2022-09-09T11:11:57;5.75;;;1.70;;
47289;SDS011;33197;52.524;13.444;2022-09-09T11:17:10;6.47;;;2.00;;
47289;SDS011;33197;52.524;13.444;2022-09-09T11:19:40;12.20;;;2.00;;
47289;SDS011;33197;52.524;13.444;2022-09-09T11:22:14;6.28;;;1.30;;
47289;SDS011;33197;52.524;13.444;2022-09-09T11:24:53;5.53;;;1.60;;
47289;SDS011;33197;52.524;13.444;2022-09-09T11:27:28;4.40;;;1.40;;
47289;SDS011;33197;52.524;13.444;2022-09-09T11:30:15;6.63;;;1.25;;
47289;SDS011;33197;52.524;13.444;2022-09-09T11:36:03;3.67;;;1.17;;
47289;SDS011;33197;52.524;13.444;2022-09-09T11:38:45;3.78;;;1.20;;
47289;SDS011;33197;52.524;13.444;2022-09-09T11:41:19;5.15;;;1.30;;
47289;SDS011;33197;52.524;13.444;2022-09-09T11:43:51;5.30;;;1.30;;
47289;SDS011;33197;52.524;13.444;2022-09-09T11:46:19;3.15;;;1.33;;
47289;SDS011;33197;52.524;13.444;2022-09-09T11:48:59;3.72;;;1.08;;
47289;SDS011;33197;52.524;13.444;2022-09-09T11:51:28;5.93;;;1.48;;
47289;SDS011;33197;52.524;13.444;2022-09-09T11:53:58;5.47;;;1.23;;
47289;SDS011;33197;52.524;13.444;2022-09-09T11:56:43;4.00;;;1.20;;
47289;SDS011;33197;52.524;13.444;2022-09-09T11:59:21;4.53;;;1.40;;
47289;SDS011;33197;52.524;13.444;2022-09-09T12:01:50;5.25;;;1.25;;
47289;SDS011;33197;52.524;13.444;2022-09-09T12:07:04;6.10;;;0.95;;
47289;SDS011;33197;52.524;13.444;2022-09-09T12:09:37;3.83;;;0.95;;
47289;SDS011;33197;52.524;13.444;2022-09-09T12:19:41;6.13;;;1.48;;
47289;SDS011;33197;52.524;13.444;2022-09-09T12:24:58;2.95;;;0.82;;
47289;SDS011;33197;52.524;13.444;2022-09-09T12:27:55;4.53;;;1.08;;
47289;SDS011;33197;52.524;13.444;2022-09-09T12:30:47;3.35;;;0.73;;
47289;SDS011;33197;52.524;13.444;2022-09-09T12:33:19;5.55;;;1.15;;
47289;SDS011;33197;52.524;13.444;2022-09-09T12:35:51;4.53;;;1.15;;
47289;SDS011;33197;52.524;13.444;2022-09-09T12:38:24;2.75;;;1.17;;
47289;SDS011;33197;52.524;13.444;2022-09-09T12:40:59;4.15;;;1.20;;
47289;SDS011;33197;52.524;13.444;2022-09-09T12:43:27;5.32;;;1.38;;
47289;SDS011;33197;52.524;13.444;2022-09-09T12:45:56;6.22;;;1.10;;
47289;SDS011;33197;52.524;13.444;2022-09-09T12:48:30;3.53;;;1.05;;
47289;SDS011;33197;52.524;13.444;2022-09-09T12:50:59;1.88;;;0.90;;
47289;SDS011;33197;52.524;13.444;2022-09-09T12:53:29;3.88;;;1.05;;
47289;SDS011;33197;52.524;13.444;2022-09-09T12:56:06;4.10;;;0.90;;
47289;SDS011;33197;52.524;13.444;2022-09-09T12:58:37;3.95;;;0.88;;
47289;SDS011;33197;52.524;13.444;2022-09-09T13:01:05;2.65;;;0.90;;
47289;SDS011;33197;52.524;13.444;2022-09-09T13:03:33;2.92;;;0.88;;
47289;SDS011;33197;52.524;13.444;2022-09-09T13:06:10;3.55;;;0.90;;
47289;SDS011;33197;52.524;13.444;2022-09-09T13:08:39;2.67;;;0.80;;
47289;SDS011;33197;52.524;13.444;2022-09-09T13:11:07;4.55;;;1.00;;
47289;SDS011;33197;52.524;13.444;2022-09-09T13:13:40;5.53;;;1.02;;
47289;SDS011;33197;52.524;13.444;2022-09-09T13:16:21;3.33;;;1.00;;
47289;SDS011;33197;52.524;13.444;2022-09-09T13:18:49;2.63;;;0.90;;
47289;SDS011;33197;52.524;13.444;2022-09-09T13:21:17;3.25;;;0.88;;
47289;SDS011;33197;52.524;13.444;2022-09-09T13:23:49;3.30;;;1.48;;
47289;SDS011;33197;52.524;13.444;2022-09-09T13:26:24;1.88;;;1.00;;
47289;SDS011;33197;52.524;13.444;2022-09-09T13:28:53;5.65;;;1.30;;
47289;SDS011;33197;52.524;13.444;2022-09-09T13:34:10;2.63;;;1.00;;
47289;SDS011;33197;52.524;13.444;2022-09-09T13:36:41;2.38;;;0.93;;
47289;SDS011;33197;52.524;13.444;2022-09-09T13:39:17;2.88;;;0.90;;
47289;SDS011;33197;52.524;13.444;2022-09-09T13:41:45;2.88;;;1.30;;
47289;SDS011;33197;52.524;13.444;2022-09-09T13:44:27;4.50;;;0.85;;
47289;SDS011;33197;52.524;13.444;2022-09-09T13:46:59;1.77;;;0.90;;
47289;SDS011;33197;52.524;13.444;2022-09-09T13:49:30;3.70;;;0.98;;
47289;SDS011;33197;52.524;13.444;2022-09-09T13:52:04;3.47;;;0.88;;
47289;SDS011;33197;52.524;13.444;2022-09-09T13:54:38;4.85;;;1.13;;
47289;SDS011;33197;52.524;13.444;2022-09-09T13:57:19;1.85;;;0.80;;
47289;SDS011;33197;52.524;13.444;2022-09-09T13:59:47;2.28;;;0.80;;
47289;SDS011;33197;52.524;13.444;2022-09-09T14:02:32;2.22;;;0.90;;
47289;SDS011;33197;52.524;13.444;2022-09-09T14:05:00;2.35;;;0.80;;
47289;SDS011;33197;52.524;13.444;2022-09-09T14:07:27;1.98;;;0.80;;
47289;SDS011;33197;52.524;13.444;2022-09-09T14:09:55;2.88;;;0.90;;
47289;SDS011;33197;52.524;13.444;2022-09-09T14:12:23;2.42;;;1.02;;
47289;SDS011;33197;52.524;13.444;2022-09-09T14:14:50;5.43;;;0.95;;
47289;SDS011;33197;52.524;13.444;2022-09-09T14:17:18;4.22;;;0.90;;
47289;SDS011;33197;52.524;13.444;2022-09-09T14:19:45;5.00;;;1.15;;
47289;SDS011;33197;52.524;13.444;2022-09-09T14:22:12;4.82;;;1.15;;
47289;SDS011;33197;52.524;13.444;2022-09-09T14:24:39;4.53;;;0.90;;
47289;SDS011;33197;52.524;13.444;2022-09-09T14:27:07;2.42;;;1.10;;
47289;SDS011;33197;52.524;13.444;2022-09-09T14:29:35;3.65;;;1.00;;
47289;SDS011;33197;52.524;13.444;2022-09-09T14:32:02;2.28;;;0.77;;
47289;SDS011;33197;52.524;13.444;2022-09-09T14:34:29;2.40;;;1.15;;
47289;SDS011;33197;52.524;13.444;2022-09-09T14:36:58;4.07;;;1.20;;
47289;SDS011;33197;52.524;13.444;2022-09-09T14:39:26;3.40;;;1.00;;
47289;SDS011;33197;52.524;13.444;2022-09-09T14:41:53;6.72;;;1.13;;
47289;SDS011;33197;52.524;13.444;2022-09-09T14:44:20;2.65;;;0.88;;
47289;SDS011;33197;52.524;13.444;2022-09-09T14:46:48;5.95;;;0.93;;
47289;SDS011;33197;52.524;13.444;2022-09-09T14:49:18;1.95;;;1.10;;
47289;SDS011;33197;52.524;13.444;2022-09-09T14:51:45;4.55;;;1.00;;
47289;SDS011;33197;52.524;13.444;2022-09-09T14:54:12;6.90;;;1.60;;
47289;SDS011;33197;52.524;13.444;2022-09-09T14:56:40;2.83;;;1.10;;
47289;SDS011;33197;52.524;13.444;2022-09-09T14:59:07;2.65;;;0.93;;
47289;SDS011;33197;52.524;13.444;2022-09-09T15:01:34;3.03;;;1.00;;
47289;SDS011;33197;52.524;13.444;2022-09-09T15:04:03;5.63;;;0.90;;
47289;SDS011;33197;52.524;13.444;2022-09-09T15:06:32;2.88;;;0.90;;
47289;SDS011;33197;52.524;13.444;2022-09-09T15:09:00;2.75;;;1.00;;
47289;SDS011;33197;52.524;13.444;2022-09-09T15:11:28;5.28;;;1.00;;
47289;SDS011;33197;52.524;13.444;2022-09-09T15:14:01;3.35;;;1.10;;
47289;SDS011;33197;52.524;13.444;2022-09-09T15:16:28;3.00;;;1.08;;
47289;SDS011;33197;52.524;13.444;2022-09-09T15:18:56;3.10;;;1.20;;
47289;SDS011;33197;52.524;13.444;2022-09-09T15:21:26;4.60;;;1.30;;
47289;SDS011;33197;52.524;13.444;2022-09-09T15:23:54;7.15;;;1.38;;
47289;SDS011;33197;52.524;13.444;2022-09-09T15:26:22;2.55;;;1.05;;
47289;SDS011;33197;52.524;13.444;2022-09-09T15:28:49;3.67;;;1.33;;
47289;SDS011;33197;52.524;13.444;2022-09-09T15:33:48;1.75;;;0.98;;
47289;SDS011;33197;52.524;13.444;2022-09-09T15:36:19;2.78;;;0.90;;
47289;SDS011;33197;52.524;13.444;2022-09-09T15:38:51;2.88;;;1.10;;
47289;SDS011;33197;52.524;13.444;2022-09-09T15:41:19;3.83;;;1.00;;
47289;SDS011;33197;52.524;13.444;2022-09-09T15:43:48;3.33;;;1.33;;
47289;SDS011;33197;52.524;13.444;2022-09-09T15:48:44;3.00;;;1.00;;
47289;SDS011;33197;52.524;13.444;2022-09-09T15:51:14;2.83;;;1.08;;
47289;SDS011;33197;52.524;13.444;2022-09-09T15:54:01;4.13;;;0.98;;
47289;SDS011;33197;52.524;13.444;2022-09-09T15:56:29;3.38;;;1.10;;
47289;SDS011;33197;52.524;13.444;2022-09-09T15:58:57;4.03;;;0.88;;
47289;SDS011;33197;52.524;13.444;2022-09-09T16:01:24;3.33;;;0.98;;
47289;SDS011;33197;52.524;13.444;2022-09-09T16:03:52;2.33;;;0.80;;
47289;SDS011;33197;52.524;13.444;2022-09-09T16:06:21;5.10;;;1.20;;
47289;SDS011;33197;52.524;13.444;2022-09-09T16:08:50;3.65;;;1.05;;
47289;SDS011;33197;52.524;13.444;2022-09-09T16:11:19;5.53;;;1.30;;
47289;SDS011;33197;52.524;13.444;2022-09-09T16:13:51;2.35;;;0.98;;
47289;SDS011;33197;52.524;13.444;2022-09-09T16:16:20;3.15;;;0.98;;
47289;SDS011;33197;52.524;13.444;2022-09-09T16:18:49;2.03;;;1.10;;
47289;SDS011;33197;52.524;13.444;2022-09-09T16:21:23;2.95;;;1.20;;
47289;SDS011;33197;52.524;13.444;2022-09-09T16:23:53;5.00;;;1.75;;
47289;SDS011;33197;52.524;13.444;2022-09-09T16:26:21;2.75;;;1.10;;
47289;SDS011;33197;52.524;13.444;2022-09-09T16:28:49;4.45;;;1.25;;
47289;SDS011;33197;52.524;13.444;2022-09-09T16:31:18;4.07;;;1.75;;
47289;SDS011;33197;52.524;13.444;2022-09-09T16:33:46;3.00;;;1.40;;
47289;SDS011;33197;52.524;13.444;2022-09-09T16:36:15;2.95;;;1.30;;
47289;SDS011;33197;52.524;13.444;2022-09-09T16:38:46;3.70;;;1.52;;
47289;SDS011;33197;52.524;13.444;2022-09-09T16:41:14;5.03;;;2.30;;
47289;SDS011;33197;52.524;13.444;2022-09-09T16:43:41;6.03;;;2.00;;
47289;SDS011;33197;52.524;13.444;2022-09-09T16:48:46;5.78;;;2.30;;
47289;SDS011;33197;52.524;13.444;2022-09-09T16:51:21;5.00;;;1.80;;
47289;SDS011;33197;52.524;13.444;2022-09-09T16:53:51;4.22;;;1.70;;
47289;SDS011;33197;52.524;13.444;2022-09-09T16:56:22;5.30;;;1.63;;
47289;SDS011;33197;52.524;13.444;2022-09-09T16:58:52;4.72;;;2.20;;